createdAt,value
2022-08-04T01:34:03.023Z,3.87
2022-08-04T01:43:23.880Z,3.70
2022-08-04T01:51:48.127Z,3.90
2022-08-04T01:56:02.332Z,3.93
2022-08-04T02:00:21.881Z,3.77
2022-08-04T02:09:04.466Z,3.83
2022-08-04T02:13:30.633Z,4.13
2022-08-04T02:17:15.475Z,3.70
2022-08-04T02:21:18.477Z,3.40
2022-08-04T02:25:06.526Z,4.33
2022-08-04T02:28:54.651Z,3.20
2022-08-04T02:32:47.368Z,4.17
2022-08-04T02:36:38.815Z,3.30
2022-08-04T02:40:49.487Z,3.30
2022-08-04T02:44:37.855Z,4.00
2022-08-04T02:48:39.978Z,4.10
2022-08-04T02:52:17.036Z,4.03
2022-08-04T02:56:12.610Z,3.73
2022-08-04T03:00:08.261Z,3.30
2022-08-04T03:04:34.616Z,4.90
2022-08-04T03:08:57.545Z,3.53
2022-08-04T03:12:59.257Z,3.17
2022-08-04T03:17:04.204Z,3.20
2022-08-04T03:21:10.004Z,4.30
2022-08-04T03:25:24.453Z,3.77
2022-08-04T03:29:37.438Z,3.17
2022-08-04T03:34:00.143Z,3.10
2022-08-04T03:38:07.618Z,4.00
2022-08-04T03:42:08.326Z,3.93
2022-08-04T03:46:20.588Z,3.67
2022-08-04T03:50:25.331Z,4.50
2022-08-04T03:54:20.503Z,3.80
2022-08-04T03:58:36.561Z,3.20
2022-08-04T04:02:57.797Z,3.93
2022-08-04T04:07:27.262Z,3.17
2022-08-04T04:11:35.807Z,3.70
2022-08-04T04:15:49.799Z,3.10
2022-08-04T04:19:58.627Z,3.93
2022-08-04T04:23:45.124Z,3.40
2022-08-04T04:27:29.930Z,3.80
2022-08-04T04:31:28.449Z,4.13
2022-08-04T04:35:15.230Z,3.57
2022-08-04T04:39:12.970Z,3.90
2022-08-04T04:43:14.422Z,3.93
2022-08-04T04:46:59.079Z,4.10
2022-08-04T04:50:43.149Z,4.00
2022-08-04T04:54:31.512Z,4.10
2022-08-04T04:58:08.083Z,4.53
2022-08-04T05:02:20.424Z,3.30
2022-08-04T05:06:21.005Z,3.60
2022-08-04T05:10:06.847Z,3.73
2022-08-04T05:14:38.230Z,3.70
2022-08-04T05:18:08.194Z,3.60
2022-08-04T05:21:59.574Z,3.30
2022-08-04T05:25:58.981Z,3.80
2022-08-04T05:29:55.544Z,3.30
2022-08-04T05:34:02.087Z,3.10
2022-08-04T05:38:04.595Z,3.77
2022-08-04T05:42:05.154Z,4.13
2022-08-04T05:59:41.395Z,2.53
2022-08-04T06:28:24.059Z,2.57
2022-08-04T06:32:31.344Z,2.83
2022-08-04T06:56:03.095Z,2.00
2022-08-04T06:59:30.470Z,2.53
2022-08-04T07:02:54.852Z,2.33
2022-08-04T07:06:18.990Z,2.33
2022-08-04T07:09:44.459Z,2.70
2022-08-04T07:13:09.421Z,2.20
2022-08-04T07:16:35.426Z,2.17
2022-08-04T07:19:59.748Z,2.23
2022-08-04T07:23:25.840Z,2.50
2022-08-04T07:26:54.630Z,1.80
2022-08-04T07:30:23.057Z,2.33
2022-08-04T07:34:16.943Z,2.33
2022-08-04T07:37:39.914Z,2.40
2022-08-04T07:44:58.581Z,2.40
2022-08-04T07:48:26.505Z,2.27
2022-08-04T07:51:56.978Z,2.10
2022-08-04T07:55:23.181Z,2.10
2022-08-04T07:58:50.953Z,1.70
2022-08-04T08:02:22.274Z,2.10
2022-08-04T08:06:16.508Z,1.80
2022-08-04T08:09:35.485Z,2.10
2022-08-04T08:13:01.519Z,2.50
2022-08-04T08:16:27.143Z,1.83
2022-08-04T08:19:54.367Z,1.57
2022-08-04T08:23:19.379Z,1.87
2022-08-04T08:26:48.508Z,1.80
2022-08-04T08:30:14.378Z,1.93
2022-08-04T08:33:38.699Z,2.03
2022-08-04T08:37:18.105Z,2.57
2022-08-04T08:40:54.864Z,1.60
2022-08-04T08:44:57.627Z,1.90
2022-08-04T08:48:49.833Z,1.60
2022-08-04T08:53:00.653Z,2.20
2022-08-04T08:56:21.146Z,1.47
2022-08-04T09:00:08.049Z,2.20
2022-08-04T09:04:04.449Z,1.50
2022-08-04T09:07:43.035Z,1.80
2022-08-04T09:11:11.084Z,1.60
2022-08-04T09:14:42.913Z,1.67
2022-08-04T09:18:12.486Z,1.60
2022-08-04T09:21:41.104Z,1.80
2022-08-04T09:25:13.342Z,1.67
2022-08-04T09:28:54.321Z,1.73
2022-08-04T09:32:28.573Z,1.67
2022-08-04T09:35:59.734Z,1.67
2022-08-04T09:39:27.842Z,1.70
2022-08-04T09:43:05.249Z,1.77
2022-08-04T09:46:37.699Z,1.87
2022-08-04T09:50:13.273Z,1.60
2022-08-04T09:53:51.104Z,1.43
2022-08-04T09:57:23.572Z,1.90
2022-08-04T10:00:52.568Z,2.10
2022-08-04T10:04:19.773Z,1.60
2022-08-04T10:07:59.722Z,1.60
2022-08-04T10:11:56.871Z,1.80
2022-08-04T10:15:28.005Z,1.70
2022-08-04T10:19:07.843Z,1.70
2022-08-04T10:22:55.528Z,1.70
2022-08-04T10:26:31.797Z,1.67
2022-08-04T10:30:03.811Z,1.70
2022-08-04T10:33:33.755Z,1.70
2022-08-04T10:37:07.256Z,1.40
2022-08-04T10:40:38.329Z,1.60
2022-08-04T10:44:14.592Z,1.40
2022-08-04T10:47:44.951Z,1.90
2022-08-04T10:51:24.856Z,1.83
2022-08-04T10:54:55.808Z,1.10
2022-08-04T10:58:22.950Z,1.80
2022-08-04T11:02:21.960Z,1.50
2022-08-04T11:05:49.922Z,1.57
2022-08-04T11:09:15.810Z,1.40
2022-08-04T11:12:43.321Z,1.47
2022-08-04T11:16:15.626Z,1.63
2022-08-04T11:19:53.571Z,1.47
2022-08-04T11:23:21.662Z,1.20
2022-08-04T11:26:49.577Z,1.37
2022-08-04T11:30:17.684Z,1.40
2022-08-04T11:33:48.187Z,1.50
2022-08-04T11:37:18.417Z,1.57
2022-08-04T11:40:55.896Z,1.37
2022-08-04T11:44:32.714Z,1.60
2022-08-04T11:48:02.199Z,1.50
2022-08-04T11:51:29.034Z,1.47
2022-08-04T11:54:54.403Z,1.47
2022-08-04T11:58:18.568Z,1.70
2022-08-04T12:01:57.434Z,1.50
2022-08-04T12:05:35.840Z,1.60
2022-08-04T12:09:10.654Z,1.40
2022-08-04T12:12:43.057Z,1.37
2022-08-04T12:16:19.121Z,1.63
2022-08-04T12:20:04.079Z,1.60
2022-08-04T12:23:41.017Z,1.20
2022-08-04T12:27:13.157Z,1.40
2022-08-04T12:30:59.876Z,1.53
2022-08-04T12:34:33.117Z,1.60
2022-08-04T12:38:02.827Z,1.17
2022-08-04T12:41:35.447Z,1.57
2022-08-04T12:45:00.842Z,1.60
2022-08-04T12:48:26.477Z,1.60
2022-08-04T12:52:07.539Z,1.40
2022-08-04T12:55:35.289Z,1.57
2022-08-04T12:59:05.227Z,1.80
2022-08-04T13:02:32.364Z,1.40
2022-08-04T13:05:56.842Z,1.43
2022-08-04T13:09:21.950Z,1.63
2022-08-04T13:12:57.186Z,1.40
2022-08-04T13:16:30.896Z,1.37
2022-08-04T13:19:56.198Z,1.20
2022-08-04T13:23:21.971Z,1.40
2022-08-04T13:26:56.794Z,1.60
2022-08-04T13:30:22.930Z,1.60
2022-08-04T13:33:50.555Z,1.40
2022-08-04T13:37:20.848Z,1.50
2022-08-04T13:40:45.886Z,1.70
2022-08-04T13:44:18.949Z,1.30
2022-08-04T13:47:44.571Z,1.50
2022-08-04T13:51:11.994Z,1.67
2022-08-04T13:54:42.874Z,1.27
2022-08-04T13:58:10.695Z,1.23
2022-08-04T14:01:38.120Z,1.40
2022-08-04T14:05:18.394Z,1.50
2022-08-04T14:08:51.184Z,1.37
2022-08-04T14:12:45.455Z,1.40
2022-08-04T14:16:03.764Z,1.90
2022-08-04T14:19:36.073Z,1.33
2022-08-04T14:23:02.443Z,1.73
2022-08-04T14:26:32.163Z,1.50
2022-08-04T14:29:57.051Z,1.50
2022-08-04T14:34:00.696Z,1.40
2022-08-04T14:37:17.605Z,1.30
2022-08-04T14:40:45.006Z,1.50
2022-08-04T14:44:10.172Z,1.40
2022-08-04T14:47:41.686Z,1.27
2022-08-04T14:51:16.883Z,1.50
2022-08-04T14:54:50.104Z,1.60
2022-08-04T14:58:33.911Z,1.57
2022-08-04T15:02:04.077Z,1.33
2022-08-04T15:06:01.588Z,1.30
2022-08-04T15:09:21.889Z,1.47
2022-08-04T15:12:46.075Z,1.60
2022-08-04T15:16:12.419Z,1.60
2022-08-04T15:19:38.506Z,1.40
2022-08-04T15:23:08.646Z,1.50
2022-08-04T15:26:39.888Z,1.40
2022-08-04T15:30:08.655Z,1.77
2022-08-04T15:33:34.578Z,1.50
2022-08-04T15:37:04.316Z,1.30
2022-08-04T15:40:33.355Z,1.37
2022-08-04T15:44:18.018Z,1.23
2022-08-04T15:47:42.348Z,1.47
2022-08-04T15:51:32.258Z,1.57
2022-08-04T15:55:32.589Z,1.50
2022-08-04T15:58:58.359Z,1.23
2022-08-04T16:02:46.187Z,1.23
2022-08-04T16:06:51.829Z,1.30
2022-08-04T16:10:39.633Z,1.33
2022-08-04T16:14:12.515Z,1.40
2022-08-04T16:17:41.955Z,1.23
2022-08-04T16:21:07.589Z,1.50
2022-08-04T16:24:36.123Z,1.40
2022-08-04T16:28:01.228Z,1.70
2022-08-04T16:31:25.164Z,1.20
2022-08-04T16:34:56.477Z,1.40
2022-08-04T16:38:23.435Z,1.20
2022-08-04T16:41:49.687Z,1.50
2022-08-04T16:45:15.592Z,1.40
2022-08-04T16:48:39.372Z,1.50
2022-08-04T16:52:04.728Z,1.33
2022-08-04T16:55:29.771Z,1.37
2022-08-04T16:58:54.315Z,1.40
2022-08-04T17:02:26.102Z,1.37
2022-08-04T17:05:50.754Z,1.60
2022-08-04T17:09:16.183Z,1.27
2022-08-04T17:12:39.918Z,1.20
2022-08-04T17:16:09.341Z,1.30
2022-08-04T17:19:36.942Z,1.23
2022-08-04T17:24:14.020Z,1.70
2022-08-04T17:28:09.475Z,1.10
2022-08-04T17:31:03.090Z,1.10
2022-08-04T17:34:26.981Z,1.40
2022-08-04T17:37:53.638Z,1.10
2022-08-04T17:49:06.548Z,1.60
2022-08-04T17:56:32.695Z,1.37
2022-08-04T17:59:59.652Z,1.50
2022-08-04T18:03:25.459Z,1.07
2022-08-04T18:06:54.639Z,1.40
2022-08-04T18:10:43.220Z,1.20
2022-08-04T18:14:28.863Z,1.10
2022-08-04T18:18:20.776Z,1.10
2022-08-04T18:21:46.478Z,1.40
2022-08-04T18:25:21.973Z,1.07
2022-08-04T18:29:07.731Z,1.30
2022-08-04T18:33:24.223Z,1.20
2022-08-04T18:36:38.892Z,1.67
2022-08-04T18:40:27.933Z,1.30
2022-08-04T18:43:55.851Z,1.63
2022-08-04T18:47:23.067Z,1.60
2022-08-04T18:51:09.804Z,1.90
2022-08-04T18:54:34.035Z,1.70
2022-08-04T18:58:01.419Z,1.50
2022-08-04T19:02:12.382Z,1.97
2022-08-04T19:08:58.736Z,1.87
2022-08-04T19:12:26.752Z,1.80
2022-08-04T19:15:51.794Z,2.30
2022-08-04T19:19:17.898Z,2.33
2022-08-04T19:24:11.269Z,2.10
2022-08-04T19:26:28.616Z,2.13
2022-08-04T19:29:52.385Z,2.17
2022-08-04T19:33:17.984Z,2.10
2022-08-04T19:36:48.857Z,2.43
2022-08-04T19:40:13.771Z,2.30
2022-08-04T19:43:44.020Z,2.43
2022-08-04T19:48:16.233Z,2.33
2022-08-04T19:50:51.653Z,2.40
2022-08-04T19:54:23.615Z,2.47
2022-08-04T19:57:49.581Z,2.80
2022-08-04T20:01:33.586Z,3.00
2022-08-04T20:04:58.609Z,3.10
2022-08-04T20:08:23.608Z,2.60
2022-08-04T20:11:47.596Z,2.60
2022-08-04T20:15:14.973Z,3.33
2022-08-04T20:18:55.462Z,2.90
2022-08-04T20:22:52.771Z,3.07
2022-08-04T20:26:06.166Z,3.13
2022-08-04T20:29:40.925Z,2.70
2022-08-04T20:33:06.989Z,2.97
2022-08-04T20:36:41.005Z,3.23
2022-08-04T20:40:14.567Z,3.30
2022-08-04T20:43:38.551Z,3.03
2022-08-04T20:47:02.346Z,2.63
2022-08-04T20:50:29.830Z,2.60
2022-08-04T20:53:55.567Z,3.00
2022-08-04T20:57:19.426Z,3.17
2022-08-04T21:01:03.341Z,2.80
2022-08-04T21:09:09.658Z,3.10
2022-08-04T21:12:39.560Z,3.30
2022-08-04T21:16:04.382Z,2.70
2022-08-04T21:19:30.597Z,3.60
2022-08-04T21:22:55.469Z,3.13
2022-08-04T21:26:25.986Z,2.90
2022-08-04T21:29:49.908Z,3.10
2022-08-04T21:33:13.886Z,3.37
2022-08-04T21:36:38.361Z,3.43
2022-08-04T21:40:14.209Z,3.97
2022-08-04T21:43:42.970Z,3.57
2022-08-04T21:47:14.051Z,3.73
2022-08-04T21:50:50.477Z,3.20
2022-08-04T21:54:17.042Z,3.53
2022-08-04T21:57:42.027Z,3.60
2022-08-04T22:01:13.311Z,3.47
2022-08-04T22:09:04.315Z,4.07
2022-08-04T22:12:53.474Z,3.40
2022-08-04T22:16:19.286Z,3.47
2022-08-04T22:40:39.139Z,4.10
2022-08-04T22:44:03.266Z,2.80
2022-08-04T23:12:24.582Z,3.33
